Time;durP1;ratioP1;P1;durP2;ratioP2;P2;SDS_P1;SDS_P2;PMS_P1;PMS_P2;Temp;Humidity;BMP_temperature;BMP_pressure;BME280_temperature;BME280_humidity;BME280_pressure;Samples;Min_cycle;Max_cycle;Signal;HPM_P1;HPM_P2
2023/09/13 00:01:30;;;;;;;8.87;3.80;;;;;;;17.68;66.64;95438.94;5051742;28;20232;-77
2023/09/13 00:03:57;;;;;;;7.87;4.20;;;;;;;17.90;66.16;95436.50;5068843;28;20714;-78
2023/09/13 00:06:22;;;;;;;7.63;4.27;;;;;;;17.67;66.97;95433.88;5033179;28;20828;-77
2023/09/13 00:08:48;;;;;;;7.07;4.00;;;;;;;17.62;67.31;95429.28;5060882;28;20257;-77
2023/09/13 00:11:13;;;;;;;9.97;4.00;;;;;;;17.71;67.13;95429.72;5056939;28;20233;-77
2023/09/13 00:13:40;;;;;;;11.07;4.20;;;;;;;17.73;66.56;95428.47;5053259;28;20223;-76
2023/09/13 00:16:06;;;;;;;9.53;3.90;;;;;;;17.81;66.85;95429.97;5047957;28;20233;-79
2023/09/13 00:18:32;;;;;;;11.27;4.33;;;;;;;17.84;66.40;95432.94;5039874;28;20228;-77
2023/09/13 00:20:58;;;;;;;9.63;4.00;;;;;;;17.66;67.51;95438.38;5052157;28;20282;-78
2023/09/13 00:23:23;;;;;;;10.17;4.13;;;;;;;17.70;67.26;95433.41;5039043;28;20243;-77
2023/09/13 00:25:49;;;;;;;10.30;4.10;;;;;;;17.66;67.95;95445.50;5078113;28;20232;-78
2023/09/13 00:28:14;;;;;;;9.53;4.13;;;;;;;17.70;67.99;95436.06;5058598;28;20228;-77
2023/09/13 00:30:40;;;;;;;8.00;3.97;;;;;;;17.57;68.49;95452.19;5070037;28;20225;-77
2023/09/13 00:33:05;;;;;;;7.27;4.23;;;;;;;17.53;68.37;95445.75;5064505;28;20240;-78
2023/09/13 00:35:35;;;;;;;8.77;4.20;;;;;;;17.33;68.57;95441.56;5042829;28;20229;-77
2023/09/13 00:38:00;;;;;;;10.57;4.30;;;;;;;17.50;68.52;95446.97;5041115;28;20244;-77
2023/09/13 00:40:26;;;;;;;8.03;4.07;;;;;;;17.37;69.15;95442.69;5071996;28;20263;-77
2023/09/13 00:42:51;;;;;;;7.37;4.13;;;;;;;17.12;69.92;95434.16;5057053;28;20293;-77
2023/09/13 00:45:17;;;;;;;8.23;4.13;;;;;;;17.20;70.08;95441.75;5073240;28;20232;-77
2023/09/13 00:47:42;;;;;;;6.17;4.03;;;;;;;17.41;69.60;95443.84;5068459;28;20281;-76
2023/09/13 00:50:09;;;;;;;10.27;4.20;;;;;;;17.39;69.48;95445.09;5044818;28;20233;-76
2023/09/13 00:52:36;;;;;;;8.87;4.00;;;;;;;17.22;70.07;95441.53;5038016;28;20228;-77
2023/09/13 00:55:04;;;;;;;9.27;4.40;;;;;;;17.11;70.97;95445.75;5045744;28;20234;-77
2023/09/13 00:57:30;;;;;;;11.00;4.30;;;;;;;17.05;70.89;95443.22;5054312;28;20236;-77
2023/09/13 00:59:55;;;;;;;8.43;4.20;;;;;;;16.89;71.88;95446.47;5072017;28;20245;-77
2023/09/13 01:02:21;;;;;;;8.17;4.03;;;;;;;17.08;71.16;95445.38;5056029;28;20232;-77
2023/09/13 01:04:46;;;;;;;10.10;4.07;;;;;;;16.86;71.85;95449.59;5077896;28;20242;-78
2023/09/13 01:07:13;;;;;;;7.60;4.13;;;;;;;16.75;72.31;95437.94;5039080;28;20334;-76
2023/09/13 01:09:39;;;;;;;8.33;4.40;;;;;;;16.72;72.35;95446.31;5056069;28;20228;-76
2023/09/13 01:12:05;;;;;;;8.57;4.10;;;;;;;16.79;71.95;95439.91;5066146;28;21095;-78
2023/09/13 01:14:34;;;;;;;9.83;4.03;;;;;;;16.71;72.36;95444.72;5049203;28;20229;-77
2023/09/13 01:17:14;;;;;;;6.77;4.30;;;;;;;16.72;72.03;95446.31;5053464;28;20228;-78
2023/09/13 01:19:52;;;;;;;9.13;4.50;;;;;;;16.85;71.87;95448.78;5053856;28;20205;-77
2023/09/13 01:22:26;;;;;;;7.37;4.50;;;;;;;16.59;72.57;95449.97;5066501;28;20241;-77
2023/09/13 01:25:28;;;;;;;12.10;4.90;;;;;;;16.64;72.75;95446.66;5071998;28;20226;-77
2023/09/13 01:28:09;;;;;;;10.63;4.87;;;;;;;16.68;72.24;95455.72;5071871;28;20260;-77
2023/09/13 01:30:35;;;;;;;8.40;4.47;;;;;;;16.77;72.48;95446.44;5070915;28;20232;-77
2023/09/13 01:33:01;;;;;;;8.67;4.87;;;;;;;16.67;73.01;95446.22;5050663;28;20247;-76
2023/09/13 01:35:26;;;;;;;9.07;4.40;;;;;;;16.84;72.17;95447.16;5070881;28;20234;-77
2023/09/13 01:37:52;;;;;;;10.63;4.83;;;;;;;16.69;72.58;95449.44;5051315;28;20227;-76
2023/09/13 01:40:26;;;;;;;9.23;4.87;;;;;;;16.66;72.83;95450.69;5069192;28;20713;-79
2023/09/13 01:42:52;;;;;;;13.63;4.80;;;;;;;16.69;72.93;95454.72;5067036;28;20255;-77
2023/09/13 01:45:17;;;;;;;10.40;4.67;;;;;;;16.60;73.25;95451.56;5050779;28;20299;-77
2023/09/13 01:47:44;;;;;;;10.90;4.80;;;;;;;16.59;72.99;95454.44;5052277;28;20262;-77
2023/09/13 01:50:10;;;;;;;8.90;4.67;;;;;;;16.55;73.49;95453.28;5047422;28;20224;-77
2023/09/13 01:52:35;;;;;;;9.37;5.40;;;;;;;16.34;74.52;95451.03;5072299;28;20251;-78
2023/09/13 01:55:05;;;;;;;12.50;5.97;;;;;;;16.34;74.49;95451.84;5047135;28;20228;-77
2023/09/13 01:57:31;;;;;;;10.50;5.70;;;;;;;16.33;74.48;95454.72;5068487;28;20275;-77
2023/09/13 01:59:56;;;;;;;12.53;5.80;;;;;;;16.05;75.77;95452.59;5067249;28;20721;-77
2023/09/13 02:02:22;;;;;;;11.77;5.93;;;;;;;16.12;75.06;95446.22;5071989;28;20290;-76
2023/09/13 02:04:49;;;;;;;13.87;6.30;;;;;;;16.27;74.84;95442.41;5045657;28;20220;-77
2023/09/13 02:07:16;;;;;;;11.77;6.20;;;;;;;16.32;74.69;95445.19;5065908;28;20857;-77
2023/09/13 02:09:42;;;;;;;12.80;5.90;;;;;;;16.52;73.71;95449.25;5066795;28;20295;-78
2023/09/13 02:12:12;;;;;;;15.00;6.03;;;;;;;16.56;73.65;95452.22;5038895;28;20241;-78
2023/09/13 02:14:38;;;;;;;14.23;6.30;;;;;;;16.49;73.84;95448.84;5055886;28;20250;-77
2023/09/13 02:17:04;;;;;;;13.83;6.50;;;;;;;16.47;74.27;95446.44;5056540;28;20270;-77
2023/09/13 02:19:29;;;;;;;10.70;6.33;;;;;;;16.46;73.95;95449.28;5051911;28;20227;-77
2023/09/13 02:21:55;;;;;;;13.97;6.50;;;;;;;16.36;74.55;95452.44;5065615;28;20235;-76
2023/09/13 02:24:20;;;;;;;13.87;6.53;;;;;;;16.34;74.90;95454.50;5066495;28;20231;-76
2023/09/13 02:26:46;;;;;;;13.07;6.93;;;;;;;16.33;74.12;95454.72;5067471;28;20298;-77
2023/09/13 02:29:11;;;;;;;18.03;7.80;;;;;;;16.30;74.12;95447.25;5032999;28;20228;-77
2023/09/13 02:31:38;;;;;;;19.40;7.70;;;;;;;16.23;74.36;95442.03;5069489;28;20227;-77
2023/09/13 02:34:04;;;;;;;13.87;7.60;;;;;;;16.21;74.21;95443.28;5064894;28;20240;-77
2023/09/13 02:36:29;;;;;;;16.73;7.87;;;;;;;16.25;73.66;95442.63;5035367;28;20888;-77
2023/09/13 02:38:57;;;;;;;16.17;7.37;;;;;;;16.34;73.80;95449.22;5065502;28;20614;-77
2023/09/13 02:41:22;;;;;;;19.70;7.50;;;;;;;16.39;73.78;95445.91;5048691;28;20225;-77
2023/09/13 02:43:57;;;;;;;18.33;7.40;;;;;;;16.19;74.19;95449.59;5065972;28;20225;-77
2023/09/13 02:46:23;;;;;;;15.90;7.27;;;;;;;16.08;74.72;95447.69;5053226;28;20275;-78
2023/09/13 02:48:49;;;;;;;15.40;7.57;;;;;;;16.20;74.44;95458.34;5048173;28;20237;-78
2023/09/13 02:51:14;;;;;;;14.13;7.07;;;;;;;16.30;74.29;95455.16;5063041;28;20308;-76
2023/09/13 02:53:40;;;;;;;17.47;6.70;;;;;;;15.99;75.78;95459.59;5063212;28;20354;-77
2023/09/13 02:56:09;;;;;;;17.70;7.00;;;;;;;16.27;74.56;95468.81;5066598;28;20225;-77
2023/09/13 02:58:34;;;;;;;16.63;6.53;;;;;;;16.12;75.29;95474.50;5055103;28;20897;-76
2023/09/13 03:01:03;;;;;;;14.33;6.50;;;;;;;16.12;75.45;95469.22;5033456;28;20228;-76
2023/09/13 03:03:30;;;;;;;18.83;6.50;;;;;;;15.95;75.64;95466.31;5048464;28;20268;-77
2023/09/13 03:06:10;;;;;;;12.17;6.30;;;;;;;15.85;76.59;95466.03;5062574;28;20241;-77
2023/09/13 03:08:52;;;;;;;14.77;6.43;;;;;;;15.90;76.97;95471.47;5048543;28;20235;-78
2023/09/13 03:11:18;;;;;;;16.97;6.63;;;;;;;15.91;76.78;95470.44;5070698;28;20284;-78
2023/09/13 03:13:44;;;;;;;15.40;6.67;;;;;;;16.07;76.32;95469.06;5067835;28;20235;-77
2023/09/13 03:16:13;;;;;;;21.20;6.67;;;;;;;16.26;75.21;95478.59;5060147;28;20251;-77
2023/09/13 03:18:39;;;;;;;15.53;6.73;;;;;;;16.23;75.27;95476.38;5035735;28;20285;-78
2023/09/13 03:21:10;;;;;;;17.83;6.63;;;;;;;15.88;76.80;95468.22;5051795;28;20236;-78
2023/09/13 03:23:44;;;;;;;18.17;6.97;;;;;;;15.80;77.20;95479.06;5055795;28;20695;-77
2023/09/13 03:26:14;;;;;;;18.57;6.67;;;;;;;15.64;77.86;95482.28;5053672;28;20227;-77
2023/09/13 03:28:40;;;;;;;13.93;6.87;;;;;;;15.59;78.15;95484.75;5020517;28;20233;-77
2023/09/13 03:31:12;;;;;;;17.20;6.40;;;;;;;15.88;76.82;95481.41;5055054;28;20267;-76
2023/09/13 03:33:39;;;;;;;13.47;6.70;;;;;;;15.65;78.28;95486.50;5050847;28;20830;-75
2023/09/13 03:36:06;;;;;;;14.40;6.70;;;;;;;15.54;78.59;95481.13;5057692;28;20315;-77
2023/09/13 03:38:40;;;;;;;17.80;7.10;;;;;;;15.34;79.54;95483.91;5074803;28;20242;-78
2023/09/13 03:41:10;;;;;;;13.70;7.00;;;;;;;15.62;78.79;95484.28;5046329;28;20227;-77
2023/09/13 03:43:35;;;;;;;21.43;7.60;;;;;;;15.57;78.43;95489.41;5055317;28;20234;-78
2023/09/13 03:46:03;;;;;;;17.63;7.23;;;;;;;15.35;79.12;95478.44;5054332;28;20225;-76
2023/09/13 03:48:30;;;;;;;17.00;7.10;;;;;;;15.34;79.40;95489.16;5051307;28;20746;-76
2023/09/13 03:50:55;;;;;;;15.30;6.70;;;;;;;15.36;78.94;95487.13;5043966;28;20228;-76
2023/09/13 03:53:21;;;;;;;15.10;7.33;;;;;;;15.35;79.28;95482.88;5076490;28;20315;-76
2023/09/13 03:55:46;;;;;;;18.33;7.33;;;;;;;15.32;79.09;95485.94;5052952;28;20220;-77
2023/09/13 03:58:12;;;;;;;16.17;6.87;;;;;;;15.46;78.98;95480.38;5063386;28;20232;-76
2023/09/13 04:00:37;;;;;;;17.77;7.00;;;;;;;15.60;78.35;95481.06;5072374;28;20228;-76
2023/09/13 04:03:03;;;;;;;16.13;7.27;;;;;;;15.57;77.89;95480.72;5045802;28;20323;-76
2023/09/13 04:05:29;;;;;;;14.60;7.03;;;;;;;15.59;77.89;95489.22;5059523;28;20293;-76
2023/09/13 04:07:55;;;;;;;16.93;7.30;;;;;;;15.63;78.31;95485.13;5056248;28;20224;-77
2023/09/13 04:10:23;;;;;;;15.60;7.20;;;;;;;15.64;78.12;95490.19;5047136;28;20319;-77
2023/09/13 04:12:49;;;;;;;15.70;6.97;;;;;;;15.38;79.03;95485.09;5063862;28;20268;-77
2023/09/13 04:15:15;;;;;;;19.43;7.47;;;;;;;15.29;79.28;95489.81;5035310;28;20855;-78
2023/09/13 04:17:41;;;;;;;17.33;7.50;;;;;;;15.35;79.41;95482.88;5073644;28;20229;-77
2023/09/13 04:20:06;;;;;;;18.57;7.43;;;;;;;15.29;79.63;95489.00;5076081;28;20263;-77
2023/09/13 04:22:32;;;;;;;17.23;7.67;;;;;;;15.39;79.43;95486.69;5057458;28;20236;-77
2023/09/13 04:24:57;;;;;;;17.83;7.57;;;;;;;15.39;79.08;95489.34;5068585;28;20233;-78
2023/09/13 04:27:23;;;;;;;20.43;7.90;;;;;;;15.53;78.40;95490.88;5064743;28;20233;-78
2023/09/13 04:29:49;;;;;;;17.53;7.83;;;;;;;15.38;78.61;95485.88;5052950;28;20239;-77
2023/09/13 04:32:14;;;;;;;20.30;7.93;;;;;;;15.39;78.43;95484.88;5063878;28;20229;-78
2023/09/13 04:34:39;;;;;;;22.00;7.20;;;;;;;15.31;78.93;95484.31;5056522;28;20228;-78
2023/09/13 04:37:05;;;;;;;17.23;7.77;;;;;;;15.47;77.91;95492.56;5066317;28;20235;-78
2023/09/13 04:39:36;;;;;;;19.37;7.20;;;;;;;15.44;78.11;95489.50;5046305;28;20233;-78
2023/09/13 04:42:02;;;;;;;18.17;7.63;;;;;;;15.39;77.99;95489.34;5032643;28;20275;-78
2023/09/13 04:44:27;;;;;;;18.77;7.47;;;;;;;15.44;78.23;95486.88;5049075;28;20224;-78
2023/09/13 04:46:55;;;;;;;17.37;7.60;;;;;;;15.69;76.82;95495.59;5056634;28;20228;-77
2023/09/13 04:49:21;;;;;;;33.00;8.00;;;;;;;15.83;75.41;95494.47;5069909;28;20864;-78
2023/09/13 04:51:46;;;;;;;16.33;7.50;;;;;;;15.91;75.81;95496.00;5046088;28;20231;-78
2023/09/13 04:54:11;;;;;;;21.23;8.00;;;;;;;16.02;75.70;95492.66;5050198;28;20637;-77
2023/09/13 04:56:38;;;;;;;16.23;8.00;;;;;;;15.76;76.81;95488.44;5037902;28;20228;-78
2023/09/13 04:59:04;;;;;;;17.97;7.90;;;;;;;15.99;75.69;95485.19;5052296;28;20318;-78
2023/09/13 05:01:30;;;;;;;18.63;7.73;;;;;;;16.07;75.27;95488.31;5048326;28;20230;-77
2023/09/13 05:03:56;;;;;;;15.67;7.60;;;;;;;16.13;75.45;95490.09;5061921;28;20232;-77
2023/09/13 05:06:22;;;;;;;16.53;7.50;;;;;;;16.13;75.38;95491.94;5063317;28;20272;-78
2023/09/13 05:08:49;;;;;;;18.13;7.37;;;;;;;16.36;74.69;95486.78;5068961;28;20228;-78
2023/09/13 05:11:14;;;;;;;17.23;7.53;;;;;;;16.32;74.60;95488.25;5055797;28;20237;-77
2023/09/13 05:13:40;;;;;;;17.37;7.50;;;;;;;16.26;74.48;95494.44;5035145;28;20339;-76
2023/09/13 05:16:05;;;;;;;21.27;7.57;;;;;;;16.42;75.46;95493.03;5070347;28;20258;-77
2023/09/13 05:18:31;;;;;;;20.07;7.40;;;;;;;16.53;75.20;95487.84;5069629;28;20267;-77
2023/09/13 05:20:56;;;;;;;14.43;7.80;;;;;;;16.56;74.83;95486.59;5077371;28;20225;-82
2023/09/13 05:23:22;;;;;;;17.10;7.60;;;;;;;16.59;73.47;95489.59;5064884;28;20237;-82
2023/09/13 05:25:51;;;;;;;16.70;7.57;;;;;;;16.67;73.04;95491.16;5050107;28;20225;-83
2023/09/13 05:28:16;;;;;;;17.13;7.70;;;;;;;16.65;73.19;95501.09;5075291;28;20726;-83
2023/09/13 05:30:46;;;;;;;15.67;7.40;;;;;;;16.91;72.96;95499.97;5072437;28;20223;-83
2023/09/13 05:33:11;;;;;;;16.37;7.97;;;;;;;16.86;73.22;95503.25;5072721;28;20232;-84
2023/09/13 05:35:36;;;;;;;19.17;7.20;;;;;;;16.89;72.29;95492.25;5054597;28;20248;-84
2023/09/13 05:38:02;;;;;;;17.10;6.83;;;;;;;17.01;72.76;95498.41;5065800;28;20237;-83
2023/09/13 05:40:28;;;;;;;16.77;6.50;;;;;;;17.06;72.47;95498.53;5053805;28;20289;-84
2023/09/13 05:42:54;;;;;;;15.67;5.67;;;;;;;17.14;71.74;95495.56;5073156;28;20232;-83
2023/09/13 05:45:19;;;;;;;10.83;5.60;;;;;;;17.25;71.38;95500.06;5065851;28;20232;-83
2023/09/13 05:47:47;;;;;;;15.87;5.43;;;;;;;17.54;69.60;95497.63;5062976;28;20313;-83
2023/09/13 05:50:13;;;;;;;11.87;5.53;;;;;;;17.55;70.06;95500.06;5046614;28;20236;-84
2023/09/13 05:52:39;;;;;;;10.90;5.30;;;;;;;17.56;70.16;95492.91;5047965;28;20682;-82
2023/09/13 05:55:05;;;;;;;15.17;5.37;;;;;;;17.62;69.43;95498.13;5071504;28;20231;-85
2023/09/13 05:57:30;;;;;;;12.30;5.30;;;;;;;17.73;69.73;95502.59;5039841;28;20232;-84
2023/09/13 05:59:56;;;;;;;14.03;5.67;;;;;;;17.72;69.44;95489.59;5073187;28;20224;-84
2023/09/13 06:02:21;;;;;;;16.40;5.60;;;;;;;17.71;68.97;95491.44;5039810;28;20236;-83
2023/09/13 06:04:47;;;;;;;10.37;5.57;;;;;;;17.82;69.60;95495.94;5048398;28;20223;-83
2023/09/13 06:07:12;;;;;;;13.93;5.97;;;;;;;17.85;68.89;95498.13;5069117;28;20260;-82
2023/09/13 06:09:38;;;;;;;13.37;6.70;;;;;;;17.91;69.13;95493.75;5073345;28;20226;-82
2023/09/13 06:12:04;;;;;;;16.80;6.90;;;;;;;17.95;67.84;95486.94;5044896;28;20220;-83
2023/09/13 06:14:31;;;;;;;21.00;8.07;;;;;;;18.06;66.91;95494.91;5049469;28;20255;-83
2023/09/13 06:16:57;;;;;;;18.27;7.30;;;;;;;18.14;67.56;95496.38;5074074;28;20231;-83
2023/09/13 06:19:22;;;;;;;17.20;7.10;;;;;;;18.16;67.32;95492.47;5046286;28;20228;-84
2023/09/13 06:21:48;;;;;;;16.13;7.60;;;;;;;18.30;67.44;95495.66;5051184;28;20313;-84
2023/09/13 06:24:14;;;;;;;20.70;7.37;;;;;;;18.27;67.17;95500.66;5065753;28;20255;-81
2023/09/13 06:26:39;;;;;;;15.63;7.40;;;;;;;18.32;67.45;95495.47;5052719;28;20236;-78
2023/09/13 06:29:05;;;;;;;18.90;7.60;;;;;;;18.28;66.94;95500.41;5049420;28;20232;-77
2023/09/13 06:31:31;;;;;;;17.80;7.70;;;;;;;18.28;66.70;95497.75;5049274;28;20244;-78
2023/09/13 06:33:56;;;;;;;19.43;7.40;;;;;;;18.34;67.20;95498.69;5029107;28;20696;-78
2023/09/13 06:36:22;;;;;;;20.90;7.33;;;;;;;18.42;67.00;95493.81;5053583;28;20232;-78
2023/09/13 06:38:47;;;;;;;12.40;6.73;;;;;;;18.55;66.92;95498.91;5070686;28;20597;-78
2023/09/13 06:41:13;;;;;;;16.40;7.33;;;;;;;18.58;67.11;95503.72;5066531;28;20301;-78
2023/09/13 06:43:41;;;;;;;15.53;6.93;;;;;;;18.57;66.15;95506.59;5048350;28;20653;-78
2023/09/13 06:46:07;;;;;;;24.03;7.23;;;;;;;18.64;66.05;95502.78;5070278;28;20231;-79
2023/09/13 06:48:33;;;;;;;19.13;6.50;;;;;;;18.75;66.01;95501.13;5070314;28;20240;-76
2023/09/13 06:50:58;;;;;;;22.53;6.77;;;;;;;18.78;65.83;95501.47;5043222;28;20315;-78
2023/09/13 06:53:24;;;;;;;13.43;6.50;;;;;;;18.72;65.19;95498.97;5050544;28;20239;-78
2023/09/13 06:55:51;;;;;;;13.73;6.50;;;;;;;18.97;64.71;95506.59;5059199;28;20225;-78
2023/09/13 06:58:16;;;;;;;14.33;6.57;;;;;;;19.13;66.07;95506.63;5072934;28;20236;-78
2023/09/13 07:00:42;;;;;;;13.20;6.10;;;;;;;19.19;64.10;95510.19;5074275;28;21255;-78
2023/09/13 07:03:08;;;;;;;12.60;6.17;;;;;;;19.21;63.90;95506.25;5049396;28;20234;-76
2023/09/13 07:05:34;;;;;;;14.27;6.57;;;;;;;19.34;63.09;95513.94;5052817;28;20227;-78
2023/09/13 07:08:00;;;;;;;14.20;6.10;;;;;;;19.31;63.21;95516.25;5069595;28;20229;-76
2023/09/13 07:10:29;;;;;;;12.97;5.80;;;;;;;19.41;63.12;95508.50;5035417;28;20225;-76
2023/09/13 07:12:54;;;;;;;12.87;6.07;;;;;;;19.56;62.80;95505.28;5070775;28;20233;-76
2023/09/13 07:15:20;;;;;;;14.33;6.07;;;;;;;19.59;61.61;95500.28;5065419;28;20627;-77
2023/09/13 07:17:45;;;;;;;14.27;6.20;;;;;;;19.50;63.30;95512.34;5060076;28;20221;-76
2023/09/13 07:20:11;;;;;;;13.63;6.00;;;;;;;19.60;62.06;95496.59;5064269;28;20240;-76
2023/09/13 07:22:37;;;;;;;14.37;6.00;;;;;;;19.73;61.86;95498.91;5037093;28;20666;-76
2023/09/13 07:25:06;;;;;;;13.47;5.70;;;;;;;19.80;61.79;95501.44;5039558;28;20539;-78
2023/09/13 07:27:31;;;;;;;17.20;6.07;;;;;;;19.93;62.03;95503.75;5062901;28;20245;-76
2023/09/13 07:29:57;;;;;;;13.93;6.43;;;;;;;20.10;61.59;95515.16;5050530;28;20236;-78
2023/09/13 07:32:22;;;;;;;14.00;5.90;;;;;;;20.01;61.15;95501.47;5069997;28;20228;-77
2023/09/13 07:34:48;;;;;;;13.13;6.40;;;;;;;20.09;60.53;95502.91;5037536;28;20220;-79
2023/09/13 07:37:13;;;;;;;10.67;5.80;;;;;;;20.28;59.57;95498.97;5034272;28;20252;-75
2023/09/13 07:39:41;;;;;;;13.57;5.57;;;;;;;20.42;59.79;95502.09;5059010;28;20236;-76
2023/09/13 07:42:06;;;;;;;12.43;5.90;;;;;;;20.41;59.12;95503.94;5048804;28;20613;-76
2023/09/13 07:44:32;;;;;;;10.70;5.50;;;;;;;20.51;59.13;95497.94;5064580;28;20220;-77
2023/09/13 07:46:57;;;;;;;15.70;5.17;;;;;;;20.36;59.40;95495.06;5069063;28;20237;-77
2023/09/13 07:49:24;;;;;;;13.93;5.80;;;;;;;20.46;59.86;95495.22;5074677;28;20230;-77
2023/09/13 07:51:49;;;;;;;15.23;6.07;;;;;;;20.59;58.51;95497.50;5068253;28;20247;-75
2023/09/13 07:54:15;;;;;;;13.53;5.70;;;;;;;20.68;58.16;95488.06;5050881;28;20229;-76
2023/09/13 07:56:40;;;;;;;12.40;5.73;;;;;;;20.67;58.08;95492.56;5066244;28;20225;-78
2023/09/13 07:59:08;;;;;;;15.93;6.00;;;;;;;20.72;58.02;95494.47;5070888;28;20228;-77
2023/09/13 08:01:33;;;;;;;13.90;6.30;;;;;;;20.85;58.08;95488.75;5056232;28;20226;-73
2023/09/13 08:03:59;;;;;;;18.33;6.10;;;;;;;20.88;58.66;95490.94;5042236;28;20233;-73
2023/09/13 08:06:25;;;;;;;12.80;6.00;;;;;;;20.97;58.00;95494.75;5048928;28;20223;-72
2023/09/13 08:08:51;;;;;;;13.40;6.00;;;;;;;21.01;58.03;95487.09;5037470;28;20297;-72
2023/09/13 08:11:17;;;;;;;17.90;5.97;;;;;;;21.23;57.77;95491.31;5066907;28;20324;-72
2023/09/13 08:13:42;;;;;;;11.33;5.70;;;;;;;21.32;56.99;95489.03;5036141;28;20286;-72
2023/09/13 08:16:07;;;;;;;14.17;5.63;;;;;;;21.41;56.70;95493.66;5057315;28;20261;-73
2023/09/13 08:18:34;;;;;;;15.27;6.00;;;;;;;21.47;57.20;95492.63;5065760;28;20224;-73
2023/09/13 08:20:59;;;;;;;12.73;5.87;;;;;;;21.48;56.72;95496.91;5052090;28;20236;-72
2023/09/13 08:23:25;;;;;;;14.30;5.77;;;;;;;21.53;56.20;95495.34;5047328;28;20222;-74
2023/09/13 08:25:50;;;;;;;14.30;6.10;;;;;;;21.44;56.36;95487.81;5060553;28;20770;-74
2023/09/13 08:28:16;;;;;;;14.17;6.00;;;;;;;21.51;56.54;95487.59;5055064;28;20232;-72
2023/09/13 08:30:42;;;;;;;10.63;5.40;;;;;;;21.65;54.37;95483.47;5054672;28;20229;-72
2023/09/13 08:33:10;;;;;;;15.60;6.97;;;;;;;21.84;54.28;95489.19;5055864;28;20822;-72
2023/09/13 08:35:35;;;;;;;13.37;6.10;;;;;;;21.96;53.62;95479.19;5035371;28;20233;-72
2023/09/13 08:38:01;;;;;;;14.83;5.83;;;;;;;21.91;53.54;95484.47;5065872;28;20237;-72
2023/09/13 08:40:26;;;;;;;17.03;6.13;;;;;;;21.99;53.22;95484.81;5065895;28;20898;-72
2023/09/13 08:42:52;;;;;;;13.02;5.90;;;;;;;22.07;53.04;95484.31;5064297;28;20684;-72
2023/09/13 08:45:17;;;;;;;10.97;5.90;;;;;;;22.18;53.77;95476.38;5056110;28;20232;-72
2023/09/13 08:47:44;;;;;;;15.27;6.70;;;;;;;22.48;52.56;95482.69;5049704;28;20237;-72
2023/09/13 08:50:10;;;;;;;17.60;6.30;;;;;;;22.55;51.93;95477.91;5051908;28;20243;-72
2023/09/13 08:52:35;;;;;;;14.07;6.32;;;;;;;22.56;52.71;95476.06;5039226;28;20221;-72
2023/09/13 08:55:01;;;;;;;17.30;6.30;;;;;;;22.57;52.49;95470.44;5046846;28;20237;-73
2023/09/13 08:57:27;;;;;;;12.03;6.20;;;;;;;22.73;52.47;95477.50;5038050;28;20275;-76
2023/09/13 08:59:53;;;;;;;18.80;6.00;;;;;;;22.92;52.67;95464.47;5072135;28;20225;-76
2023/09/13 09:02:18;;;;;;;15.07;6.07;;;;;;;22.96;51.96;95462.06;5048889;28;20255;-77
2023/09/13 09:04:45;;;;;;;14.70;5.67;;;;;;;23.01;51.01;95459.41;5048080;28;20222;-76
2023/09/13 09:07:10;;;;;;;13.97;5.87;;;;;;;23.10;51.27;95457.84;5053378;28;20279;-76
2023/09/13 09:09:36;;;;;;;12.93;5.30;;;;;;;23.25;48.00;95460.53;5065879;28;20251;-76
2023/09/13 09:12:02;;;;;;;11.07;4.93;;;;;;;23.26;48.61;95462.16;5058950;28;20224;-77
2023/09/13 09:14:31;;;;;;;12.52;5.22;;;;;;;23.50;47.87;95462.47;5065704;28;20725;-73
2023/09/13 09:16:58;;;;;;;11.95;5.05;;;;;;;23.59;47.49;95459.00;5048063;28;20305;-73
2023/09/13 09:19:24;;;;;;;12.77;5.10;;;;;;;23.74;47.03;95461.66;5047234;28;20229;-73
2023/09/13 09:21:49;;;;;;;14.68;5.40;;;;;;;23.90;45.97;95459.78;5061506;28;20255;-73
2023/09/13 09:24:15;;;;;;;14.25;5.18;;;;;;;23.87;46.27;95453.09;5068649;28;20281;-72
2023/09/13 09:26:40;;;;;;;11.32;4.05;;;;;;;24.07;42.89;95452.31;5081913;28;20220;-73
2023/09/13 09:29:10;;;;;;;10.00;4.07;;;;;;;24.25;42.22;95454.41;5083531;28;20238;-73
2023/09/13 09:31:37;;;;;;;12.20;4.53;;;;;;;24.11;43.35;95456.03;5034471;28;20291;-73
2023/09/13 09:34:05;;;;;;;9.55;4.28;;;;;;;24.08;45.63;95452.03;5038699;28;20693;-73
2023/09/13 09:36:34;;;;;;;10.43;4.88;;;;;;;24.29;44.58;95450.09;5042505;28;20239;-73
2023/09/13 09:39:04;;;;;;;9.23;4.70;;;;;;;24.45;44.59;95449.00;5041352;28;20257;-73
2023/09/13 09:41:32;;;;;;;13.02;4.70;;;;;;;24.54;44.34;95447.34;5049796;28;20240;-73
2023/09/13 09:43:58;;;;;;;12.85;4.70;;;;;;;24.52;44.14;95446.81;5052378;28;20315;-73
2023/09/13 09:46:24;;;;;;;13.88;4.70;;;;;;;24.56;44.26;95444.38;5034943;28;20367;-73
2023/09/13 09:48:51;;;;;;;15.02;4.47;;;;;;;24.77;42.63;95442.47;5049841;28;20631;-73
2023/09/13 09:51:16;;;;;;;9.80;4.70;;;;;;;24.72;43.53;95436.00;5041302;28;20232;-73
2023/09/13 09:53:42;;;;;;;10.60;4.85;;;;;;;24.86;42.99;95433.59;5055387;28;20244;-72
2023/09/13 09:56:07;;;;;;;15.65;4.90;;;;;;;24.98;42.21;95434.03;5048035;28;20645;-73
2023/09/13 09:58:33;;;;;;;12.65;4.93;;;;;;;24.95;42.68;95431.13;5040707;28;20705;-73
2023/09/13 10:01:00;;;;;;;12.75;4.70;;;;;;;24.99;42.96;95424.94;5046626;28;20237;-72
2023/09/13 10:03:26;;;;;;;8.85;4.38;;;;;;;25.05;41.55;95426.50;5039913;28;20244;-72
2023/09/13 10:06:11;;;;;;;15.07;4.90;;;;;;;25.28;42.15;95425.81;5061758;28;20232;-73
2023/09/13 10:08:43;;;;;;;11.70;4.75;;;;;;;25.26;41.74;95417.25;5039733;28;20232;-72
2023/09/13 10:11:10;;;;;;;10.82;4.53;;;;;;;25.45;40.49;95420.09;5071505;28;20281;-72
2023/09/13 10:13:36;;;;;;;13.85;4.78;;;;;;;25.49;41.79;95406.91;5048050;28;20228;-72
2023/09/13 10:16:02;;;;;;;10.95;4.50;;;;;;;25.53;41.27;95416.78;5045965;28;20610;-72
2023/09/13 10:18:30;;;;;;;10.35;4.80;;;;;;;25.61;41.34;95413.53;5034316;28;20285;-73
2023/09/13 10:20:57;;;;;;;12.10;4.70;;;;;;;25.67;41.86;95404.38;5043448;28;20286;-72
2023/09/13 10:23:26;;;;;;;12.20;4.60;;;;;;;25.86;41.14;95404.44;5032912;28;20297;-73
2023/09/13 10:25:51;;;;;;;15.18;5.30;;;;;;;26.01;40.59;95406.97;5038954;28;20228;-72
2023/09/13 10:28:17;;;;;;;12.60;4.50;;;;;;;26.03;40.88;95400.22;5062182;28;20338;-73
2023/09/13 10:30:42;;;;;;;9.13;4.40;;;;;;;26.05;41.65;95400.78;5061951;28;20595;-73
2023/09/13 10:33:08;;;;;;;10.45;4.43;;;;;;;25.99;40.06;95398.41;5045577;28;20253;-72
2023/09/13 10:35:37;;;;;;;12.88;4.97;;;;;;;26.16;40.65;95395.31;5047325;28;20251;-72
2023/09/13 10:38:06;;;;;;;13.05;4.80;;;;;;;26.30;41.08;95394.34;5050664;28;20260;-72
2023/09/13 10:40:38;;;;;;;11.43;4.70;;;;;;;26.42;40.32;95399.28;5060791;28;20277;-73
2023/09/13 10:43:04;;;;;;;15.38;4.53;;;;;;;26.56;39.66;95398.31;5061205;28;20259;-73
2023/09/13 10:45:30;;;;;;;13.88;4.90;;;;;;;26.80;39.93;95392.16;5043334;28;20225;-72
2023/09/13 10:47:55;;;;;;;13.52;5.00;;;;;;;26.84;40.22;95385.09;5070490;28;20224;-72
2023/09/13 10:50:21;;;;;;;13.15;4.63;;;;;;;26.82;39.96;95381.91;5071654;28;20312;-72
2023/09/13 10:52:46;;;;;;;11.45;4.75;;;;;;;26.93;38.66;95386.03;5050487;28;20599;-72
2023/09/13 10:55:12;;;;;;;9.55;4.38;;;;;;;26.95;39.06;95383.88;5034306;28;20237;-75
2023/09/13 10:57:40;;;;;;;11.50;4.82;;;;;;;27.15;39.12;95373.63;5033267;28;20228;-72
2023/09/13 11:00:11;;;;;;;16.48;4.80;;;;;;;27.22;38.65;95376.75;5066527;28;20669;-73
2023/09/13 11:02:41;;;;;;;7.07;4.70;;;;;;;27.35;37.01;95367.91;5039388;28;20965;-71
2023/09/13 11:05:07;;;;;;;13.05;4.78;;;;;;;27.42;36.40;95370.25;5044030;28;20332;-73
2023/09/13 11:07:33;;;;;;;11.25;4.72;;;;;;;27.39;37.10;95368.19;5035536;28;20312;-72
2023/09/13 11:10:05;;;;;;;10.95;4.50;;;;;;;27.46;37.88;95365.09;5033958;28;20344;-72
2023/09/13 11:12:34;;;;;;;10.35;4.50;;;;;;;27.62;35.40;95369.94;5070772;28;20233;-72
2023/09/13 11:15:12;;;;;;;9.13;4.30;;;;;;;27.74;35.63;95362.19;5056781;28;20236;-73
2023/09/13 11:17:39;;;;;;;17.20;4.90;;;;;;;27.84;35.15;95353.13;5036757;28;20608;-73
2023/09/13 11:20:24;;;;;;;11.93;4.28;;;;;;;27.88;36.02;95354.94;5070371;28;20247;-72
2023/09/13 11:23:09;;;;;;;11.00;4.68;;;;;;;27.93;36.79;95354.84;5056736;28;20247;-72
2023/09/13 11:25:38;;;;;;;14.55;4.75;;;;;;;27.81;35.23;95346.44;5050377;28;20294;-74